This is the latest recevied weather packets stored in our database for station/object EA1ZE. If no packets are shown the sender has not sent any weather packets the latest 10 day(s).
| Time | Temp. | Humidity | Pressure | Rain* | Wind** | Luminosity | Snow |
|---|---|---|---|---|---|---|---|
| 1778067012 | 13.89° C | 55% | 1014.2 hPa | 0 mm | - | - | - |
| 1778066109 | 13.33° C | 59% | 1014.3 hPa | 0 mm | - | - | - |
| 1778065207 | 13.89° C | 59% | 1014.4 hPa | 0 mm | - | - | - |
| 1778064303 | 13.33° C | 60% | 1014.4 hPa | 0 mm | - | - | - |
| 1778063403 | 13.33° C | 61% | 1014.5 hPa | 0 mm | - | - | - |
| 1778062564 | 12.78° C | 64% | 1014.6 hPa | 0 mm | - | - | - |
| 1778061653 | 11.67° C | 72% | 1014.7 hPa | 0 mm | - | - | - |
| 1778060756 | 11.11° C | 77% | 1014.8 hPa | 0 mm | - | - | - |
| 1778059850 | 10.56° C | 82% | 1014.9 hPa | 0 mm | - | - | - |
| 1778058942 | 9.44° C | 87% | 1014.9 hPa | 0 mm | - | - | - |
| 1778058039 | 8.33° C | 91% | 1014.9 hPa | 0 mm | - | - | - |
| 1778057138 | 7.78° C | 92% | 1014.9 hPa | 0 mm | - | - | - |
| 1778056238 | 7.22° C | 93% | 1014.8 hPa | 0 mm | - | - | - |
| 1778055336 | 6.11° C | 93% | 1014.8 hPa | 0 mm | - | - | - |
| 1778054441 | 6.11° C | 93% | 1014.8 hPa | 0 mm | - | - | - |
| 1778053543 | 5.56° C | 93% | 1014.9 hPa | 0 mm | - | - | - |
| 1778052641 | 5° C | 93% | 1014.8 hPa | 0 mm | - | - | - |
| 1778051734 | 5° C | 93% | 1014.8 hPa | 0 mm | - | - | - |
| 1778050832 | 4.44° C | 93% | 1014.7 hPa | 0 mm | - | - | - |
| 1778049932 | 4.44° C | 92% | 1014.7 hPa | 0 mm | - | - | - |
| 1778049035 | 3.89° C | 92% | 1014.5 hPa | 0 mm | - | - | - |
| 1778048131 | 3.89° C | 92% | 1014.6 hPa | 0 mm | - | - | - |
| 1778047229 | 4.44° C | 92% | 1014.4 hPa | 0 mm | - | - | - |
| 1778046337 | 3.89° C | 92% | 1014.4 hPa | 0 mm | - | - | - |
| 1778045429 | 3.89° C | 91% | 1014.2 hPa | 0 mm | - | - | - |
* Rain latest hour (hover to see other rain measurements)
** Current wind speed in m/s (hover to see current wind gust speed)